createdAt,value
2022-11-14T00:00:32.966Z,1010.06
2022-11-14T00:01:08.386Z,1010.04
2022-11-14T00:01:43.378Z,1010.06
2022-11-14T00:02:18.637Z,1010.04
2022-11-14T00:02:53.834Z,1010.01
2022-11-14T00:03:28.969Z,1009.98
2022-11-14T00:04:04.019Z,1010.03
2022-11-14T00:04:39.316Z,1010.06
2022-11-14T00:05:14.596Z,1010.03
2022-11-14T00:05:49.599Z,1010.02
2022-11-14T00:06:24.669Z,1010.03
2022-11-14T00:07:00.268Z,1010.02
2022-11-14T00:07:35.367Z,1009.98
2022-11-14T00:08:10.993Z,1010.00
2022-11-14T00:08:46.195Z,1010.01
2022-11-14T00:09:21.395Z,1010.02
2022-11-14T00:09:57.017Z,1010.03
2022-11-14T00:10:32.401Z,1009.99
2022-11-14T00:11:07.500Z,1009.98
2022-11-14T00:11:42.886Z,1009.97
2022-11-14T00:12:18.067Z,1009.96
2022-11-14T00:12:53.367Z,1009.93
2022-11-14T00:13:28.644Z,1009.97
2022-11-14T00:14:03.881Z,1009.98
2022-11-14T00:14:39.170Z,1009.97
2022-11-14T00:15:14.458Z,1009.96
2022-11-14T00:15:49.552Z,1009.96
2022-11-14T00:16:24.550Z,1009.94
2022-11-14T00:16:59.456Z,1009.98
2022-11-14T00:17:34.656Z,1009.96
2022-11-14T00:18:09.858Z,1009.94
2022-11-14T00:18:45.050Z,1009.98
2022-11-14T00:19:20.343Z,1009.93
2022-11-14T00:19:55.841Z,1009.96
2022-11-14T00:20:30.940Z,1009.91
2022-11-14T00:21:06.218Z,1009.96
2022-11-14T00:21:41.530Z,1009.91
2022-11-14T00:22:16.537Z,1009.92
2022-11-14T00:22:51.619Z,1009.97
2022-11-14T00:23:26.828Z,1009.92
2022-11-14T00:24:01.946Z,1009.96
2022-11-14T00:24:37.324Z,1009.96
2022-11-14T00:25:12.477Z,1009.95
2022-11-14T00:25:47.972Z,1009.94
2022-11-14T00:26:23.339Z,1009.93
2022-11-14T00:26:58.509Z,1009.94
2022-11-14T00:27:34.006Z,1009.89
2022-11-14T00:28:09.281Z,1009.88
2022-11-14T00:28:44.576Z,1009.89
2022-11-14T00:29:20.067Z,1009.89
2022-11-14T00:29:55.062Z,1009.87
2022-11-14T00:30:30.303Z,1009.93
2022-11-14T00:31:05.395Z,1009.96
2022-11-14T00:31:40.689Z,1009.92
2022-11-14T00:32:15.980Z,1009.93
2022-11-14T00:32:51.169Z,1009.94
2022-11-14T00:33:26.839Z,1009.91
2022-11-14T00:34:02.138Z,1009.91
2022-11-14T00:34:37.526Z,1009.89
2022-11-14T00:35:12.740Z,1009.91
2022-11-14T00:35:47.773Z,1009.91
2022-11-14T00:36:23.269Z,1009.89
2022-11-14T00:36:58.456Z,1009.85
2022-11-14T00:37:33.924Z,1009.86
2022-11-14T00:38:09.033Z,1009.88
2022-11-14T00:38:44.266Z,1009.90
2022-11-14T00:39:19.575Z,1009.84
2022-11-14T00:39:54.670Z,1009.89
2022-11-14T00:40:30.157Z,1009.87
2022-11-14T00:41:05.475Z,1009.86
2022-11-14T00:41:40.659Z,1009.83
2022-11-14T00:42:16.045Z,1009.83
2022-11-14T00:42:51.315Z,1009.86
2022-11-14T00:43:26.521Z,1009.83
2022-11-14T00:44:01.830Z,1009.83
2022-11-14T00:44:36.922Z,1009.79
2022-11-14T00:45:12.019Z,1009.84
2022-11-14T00:45:47.296Z,1009.78
2022-11-14T00:46:22.663Z,1009.79
2022-11-14T00:46:58.238Z,1009.80
2022-11-14T00:47:33.231Z,1009.75
2022-11-14T00:48:08.638Z,1009.76
2022-11-14T00:48:43.820Z,1009.74
2022-11-14T00:49:19.029Z,1009.73
2022-11-14T00:49:54.203Z,1009.75
2022-11-14T00:50:29.405Z,1009.71
2022-11-14T00:51:04.383Z,1009.69
2022-11-14T00:51:39.491Z,1009.70
2022-11-14T00:52:14.907Z,1009.67
2022-11-14T00:52:50.083Z,1009.68
2022-11-14T00:53:25.580Z,1009.63
2022-11-14T00:54:00.666Z,1009.65
2022-11-14T00:54:36.374Z,1009.64
2022-11-14T00:55:11.659Z,1009.62
2022-11-14T00:55:46.681Z,1009.58
2022-11-14T00:56:21.942Z,1009.59
2022-11-14T00:56:57.367Z,1009.56
2022-11-14T00:57:32.780Z,1009.57
2022-11-14T00:58:07.860Z,1009.54
2022-11-14T00:58:43.267Z,1009.54
2022-11-14T00:59:18.340Z,1009.56
2022-11-14T00:59:53.359Z,1009.50
2022-11-14T01:00:28.487Z,1009.52
2022-11-14T01:01:03.712Z,1009.52
2022-11-14T01:01:38.952Z,1009.45
2022-11-14T01:02:14.253Z,1009.46
2022-11-14T01:02:49.544Z,1009.43
2022-11-14T01:03:24.826Z,1009.44
2022-11-14T01:04:00.242Z,1009.42
2022-11-14T01:04:35.523Z,1009.45
2022-11-14T01:05:10.753Z,1009.43
2022-11-14T01:05:45.765Z,1009.42
2022-11-14T01:06:21.269Z,1009.37
2022-11-14T01:06:56.267Z,1009.38
2022-11-14T01:07:31.577Z,1009.35
2022-11-14T01:08:06.564Z,1009.33
2022-11-14T01:08:41.852Z,1009.31
2022-11-14T01:09:17.182Z,1009.34
2022-11-14T01:09:52.434Z,1009.34
2022-11-14T01:10:27.525Z,1009.29
2022-11-14T01:11:02.596Z,1009.28
2022-11-14T01:11:37.697Z,1009.31
2022-11-14T01:12:12.890Z,1009.30
2022-11-14T01:12:48.295Z,1009.29
2022-11-14T01:13:23.491Z,1009.29
2022-11-14T01:13:58.995Z,1009.29
2022-11-14T01:14:34.390Z,1009.31
2022-11-14T01:15:09.695Z,1009.30
2022-11-14T01:15:45.177Z,1009.31
2022-11-14T01:16:20.781Z,1009.28
2022-11-14T01:16:56.162Z,1009.30
2022-11-14T01:17:31.153Z,1009.29
2022-11-14T01:18:06.756Z,1009.30
2022-11-14T01:18:42.038Z,1009.27
2022-11-14T01:19:17.028Z,1009.27
2022-11-14T01:19:52.215Z,1009.25
2022-11-14T01:20:27.397Z,1009.24
2022-11-14T01:21:02.575Z,1009.28
2022-11-14T01:21:37.966Z,1009.24
2022-11-14T01:22:13.242Z,1009.22
2022-11-14T01:22:48.732Z,1009.19
2022-11-14T01:23:24.130Z,1009.21
2022-11-14T01:23:59.598Z,1009.23
2022-11-14T01:24:34.695Z,1009.23
2022-11-14T01:25:10.008Z,1009.22
2022-11-14T01:25:45.326Z,1009.21
2022-11-14T01:26:20.416Z,1009.21
2022-11-14T01:26:55.613Z,1009.21
2022-11-14T01:27:30.818Z,1009.19
2022-11-14T01:28:06.209Z,1009.21
2022-11-14T01:28:41.431Z,1009.19
2022-11-14T01:29:16.740Z,1009.20
2022-11-14T01:29:52.026Z,1009.18
2022-11-14T01:30:27.310Z,1009.17
2022-11-14T01:31:02.592Z,1009.20
2022-11-14T01:31:37.885Z,1009.17
2022-11-14T01:32:13.354Z,1009.17
2022-11-14T01:32:48.783Z,1009.17
2022-11-14T01:33:23.867Z,1009.15
2022-11-14T01:33:59.179Z,1009.21
2022-11-14T01:34:34.170Z,1009.20
2022-11-14T01:35:09.270Z,1009.20
2022-11-14T01:35:44.662Z,1009.18
2022-11-14T01:36:19.847Z,1009.22
2022-11-14T01:36:55.143Z,1009.19
2022-11-14T01:37:30.436Z,1009.19
2022-11-14T01:38:05.629Z,1009.24
2022-11-14T01:38:40.615Z,1009.22
2022-11-14T01:39:16.073Z,1009.22
2022-11-14T01:39:51.286Z,1009.27
2022-11-14T01:40:26.781Z,1009.24
2022-11-14T01:41:01.966Z,1009.26
2022-11-14T01:41:37.085Z,1009.20
2022-11-14T01:42:12.281Z,1009.20
2022-11-14T01:42:47.468Z,1009.22
2022-11-14T01:43:22.470Z,1009.21
2022-11-14T01:43:57.734Z,1009.20
2022-11-14T01:44:33.270Z,1009.18
2022-11-14T01:45:08.260Z,1009.20
2022-11-14T01:45:43.253Z,1009.16
2022-11-14T01:46:18.554Z,1009.17
2022-11-14T01:46:53.839Z,1009.12
2022-11-14T01:47:29.048Z,1009.13
2022-11-14T01:48:04.323Z,1009.15
2022-11-14T01:48:39.823Z,1009.11
2022-11-14T01:49:15.149Z,1009.09
2022-11-14T01:49:50.444Z,1009.09
2022-11-14T01:50:25.757Z,1009.05
2022-11-14T01:51:01.236Z,1009.03
2022-11-14T01:51:36.555Z,1009.01
2022-11-14T01:52:11.661Z,1008.98
2022-11-14T01:52:47.055Z,1008.99
2022-11-14T01:53:22.256Z,1008.99
2022-11-14T01:53:57.641Z,1008.99
2022-11-14T01:54:32.861Z,1008.97
2022-11-14T01:55:07.974Z,1008.99
2022-11-14T01:55:43.160Z,1008.93
2022-11-14T01:56:18.358Z,1008.96
2022-11-14T01:56:53.460Z,1008.96
2022-11-14T01:57:28.781Z,1008.96
2022-11-14T01:58:04.077Z,1008.99
2022-11-14T01:58:39.382Z,1009.01
2022-11-14T01:59:14.777Z,1008.97
2022-11-14T01:59:50.069Z,1009.01
2022-11-14T02:00:25.571Z,1008.97
2022-11-14T02:01:00.733Z,1008.96
2022-11-14T02:01:35.813Z,1008.98
2022-11-14T02:02:10.983Z,1008.98
2022-11-14T02:02:46.183Z,1008.94
2022-11-14T02:03:21.385Z,1008.93
2022-11-14T02:03:56.769Z,1008.91
2022-11-14T02:04:31.963Z,1008.86
2022-11-14T02:05:06.972Z,1008.84
2022-11-14T02:05:42.372Z,1008.84
2022-11-14T02:06:17.391Z,1008.85
2022-11-14T02:06:52.936Z,1008.83
2022-11-14T02:07:28.271Z,1008.84
2022-11-14T02:08:03.482Z,1008.84
2022-11-14T02:08:38.386Z,1008.83
2022-11-14T02:09:13.881Z,1008.84
2022-11-14T02:09:49.190Z,1008.81
2022-11-14T02:10:24.478Z,1008.83
2022-11-14T02:10:59.700Z,1008.86
2022-11-14T02:11:35.411Z,1008.82
2022-11-14T02:12:10.630Z,1008.80
2022-11-14T02:12:45.916Z,1008.81
2022-11-14T02:13:20.939Z,1008.81
2022-11-14T02:13:56.429Z,1008.80
2022-11-14T02:14:31.744Z,1008.76
2022-11-14T02:15:07.041Z,1008.79
2022-11-14T02:15:42.345Z,1008.78
2022-11-14T02:16:17.644Z,1008.77
2022-11-14T02:17:14.798Z,1008.77
2022-11-14T02:17:30.654Z,1008.73
2022-11-14T02:18:03.265Z,1008.75
2022-11-14T02:18:38.671Z,1008.72
2022-11-14T02:19:13.567Z,1008.73
2022-11-14T02:19:48.769Z,1008.72
2022-11-14T02:20:24.157Z,1008.70
2022-11-14T02:20:59.760Z,1008.73
2022-11-14T02:21:35.158Z,1008.72
2022-11-14T02:22:10.436Z,1008.66
2022-11-14T02:22:45.836Z,1008.70
2022-11-14T02:23:21.436Z,1008.65
2022-11-14T02:23:56.961Z,1008.63
2022-11-14T02:24:32.359Z,1008.61
2022-11-14T02:25:07.838Z,1008.63
2022-11-14T02:25:42.935Z,1008.62
2022-11-14T02:26:18.420Z,1008.62
2022-11-14T02:26:54.023Z,1008.60
2022-11-14T02:27:29.396Z,1008.63
2022-11-14T02:28:04.695Z,1008.60
2022-11-14T02:28:39.798Z,1008.58
2022-11-14T02:29:14.992Z,1008.59
2022-11-14T02:29:50.394Z,1008.55
2022-11-14T02:30:25.799Z,1008.57
2022-11-14T02:31:01.335Z,1008.55
2022-11-14T02:31:36.824Z,1008.56
2022-11-14T02:32:12.209Z,1008.56
2022-11-14T02:33:13.627Z,1008.56
2022-11-14T02:33:22.895Z,1008.54
2022-11-14T02:33:58.088Z,1008.55
2022-11-14T02:34:33.291Z,1008.53
2022-11-14T02:35:08.284Z,1008.55
2022-11-14T02:35:43.385Z,1008.55
2022-11-14T02:36:18.568Z,1008.51
2022-11-14T02:36:53.885Z,1008.53
2022-11-14T02:37:29.372Z,1008.50
2022-11-14T02:38:04.669Z,1008.49
2022-11-14T02:38:40.076Z,1008.49
2022-11-14T02:39:15.476Z,1008.49
2022-11-14T02:39:50.567Z,1008.48
2022-11-14T02:40:25.867Z,1008.49
2022-11-14T02:41:01.287Z,1008.48
2022-11-14T02:41:36.395Z,1008.47
2022-11-14T02:42:11.587Z,1008.45
2022-11-14T02:42:47.088Z,1008.44
2022-11-14T02:43:22.679Z,1008.43
2022-11-14T02:43:57.970Z,1008.42
2022-11-14T02:44:33.453Z,1008.44
2022-11-14T02:45:08.843Z,1008.43
2022-11-14T02:45:43.849Z,1008.41
2022-11-14T02:46:18.944Z,1008.42
2022-11-14T02:46:54.550Z,1008.42
2022-11-14T02:47:29.539Z,1008.38
2022-11-14T02:48:04.539Z,1008.38
2022-11-14T02:48:39.637Z,1008.43
2022-11-14T02:49:14.827Z,1008.42
2022-11-14T02:49:50.003Z,1008.43
2022-11-14T02:50:25.212Z,1008.45
2022-11-14T02:51:00.099Z,1008.46
2022-11-14T02:51:35.199Z,1008.46
2022-11-14T02:52:10.381Z,1008.44
2022-11-14T02:52:45.796Z,1008.43
2022-11-14T02:53:21.015Z,1008.43
2022-11-14T02:53:56.003Z,1008.40
2022-11-14T02:54:31.041Z,1008.41
2022-11-14T02:55:06.518Z,1008.35
2022-11-14T02:55:41.914Z,1008.35
2022-11-14T02:56:17.106Z,1008.37
2022-11-14T02:56:52.498Z,1008.36
2022-11-14T02:57:27.784Z,1008.34
2022-11-14T02:58:03.078Z,1008.35
2022-11-14T02:58:38.499Z,1008.36
2022-11-14T02:59:13.903Z,1008.37
2022-11-14T02:59:49.282Z,1008.39
2022-11-14T03:00:24.448Z,1008.35
2022-11-14T03:01:19.741Z,1008.35
2022-11-14T03:01:35.114Z,1008.36
2022-11-14T03:02:10.398Z,1008.35
2022-11-14T03:02:45.369Z,1008.37
2022-11-14T03:03:20.721Z,1008.34
2022-11-14T03:03:55.923Z,1008.32
2022-11-14T03:04:31.311Z,1008.34
2022-11-14T03:05:06.488Z,1008.34
2022-11-14T03:05:41.508Z,1008.34
2022-11-14T03:06:16.700Z,1008.29
2022-11-14T03:06:52.135Z,1008.29
2022-11-14T03:07:27.270Z,1008.27
2022-11-14T03:08:02.284Z,1008.28
2022-11-14T03:08:37.584Z,1008.28
2022-11-14T03:09:12.773Z,1008.27
2022-11-14T03:09:48.192Z,1008.27
2022-11-14T03:10:23.685Z,1008.25
2022-11-14T03:10:58.930Z,1008.25
2022-11-14T03:11:34.160Z,1008.28
2022-11-14T03:12:09.355Z,1008.26
2022-11-14T03:12:44.468Z,1008.22
2022-11-14T03:13:19.603Z,1008.23
2022-11-14T03:13:54.984Z,1008.24
2022-11-14T03:14:30.185Z,1008.22
2022-11-14T03:15:05.481Z,1008.23
2022-11-14T03:15:40.662Z,1008.22
2022-11-14T03:16:15.758Z,1008.24
2022-11-14T03:16:50.953Z,1008.19
2022-11-14T03:17:26.435Z,1008.23
2022-11-14T03:18:01.727Z,1008.21
2022-11-14T03:18:37.157Z,1008.23
2022-11-14T03:19:12.536Z,1008.18
2022-11-14T03:19:47.947Z,1008.18
2022-11-14T03:20:23.436Z,1008.20
2022-11-14T03:20:59.109Z,1008.20
2022-11-14T03:21:34.219Z,1008.18
2022-11-14T03:22:09.418Z,1008.19
2022-11-14T03:22:44.717Z,1008.20
2022-11-14T03:23:20.107Z,1008.18
2022-11-14T03:23:55.206Z,1008.18
2022-11-14T03:24:30.329Z,1008.16
2022-11-14T03:25:05.795Z,1008.13
2022-11-14T03:25:41.104Z,1008.15
2022-11-14T03:26:17.608Z,1008.19
2022-11-14T03:26:52.790Z,1008.19
2022-11-14T03:27:28.262Z,1008.19
2022-11-14T03:28:03.267Z,1008.21
2022-11-14T03:28:38.466Z,1008.20
2022-11-14T03:29:13.566Z,1008.18
2022-11-14T03:29:48.853Z,1008.18
2022-11-14T03:30:24.062Z,1008.18
2022-11-14T03:30:59.255Z,1008.17
2022-11-14T03:31:34.444Z,1008.16
2022-11-14T03:32:09.637Z,1008.17
2022-11-14T03:32:44.832Z,1008.16
2022-11-14T03:33:19.847Z,1008.09
2022-11-14T03:33:55.139Z,1008.11
2022-11-14T03:34:30.433Z,1008.06
2022-11-14T03:35:05.738Z,1008.09
2022-11-14T03:35:40.928Z,1008.05
2022-11-14T03:36:16.227Z,1008.00
2022-11-14T03:36:51.733Z,1008.01
2022-11-14T03:37:26.910Z,1008.00
2022-11-14T03:38:02.213Z,1008.03
2022-11-14T03:38:37.314Z,1008.00
2022-11-14T03:39:12.603Z,1007.97
2022-11-14T03:39:47.978Z,1007.95
2022-11-14T03:40:23.021Z,1007.93
2022-11-14T03:40:58.264Z,1007.95
2022-11-14T03:41:33.549Z,1007.96
2022-11-14T03:42:08.740Z,1007.95
2022-11-14T03:42:44.319Z,1007.98
2022-11-14T03:43:19.437Z,1007.95
2022-11-14T03:43:54.720Z,1007.94
2022-11-14T03:44:29.909Z,1007.96
2022-11-14T03:45:05.219Z,1007.92
2022-11-14T03:45:40.494Z,1007.95
2022-11-14T03:46:15.485Z,1007.98
2022-11-14T03:46:50.671Z,1007.95
2022-11-14T03:47:25.991Z,1007.96
2022-11-14T03:48:01.196Z,1007.94
2022-11-14T03:48:36.596Z,1007.95
2022-11-14T03:49:11.807Z,1008.00
2022-11-14T03:49:47.203Z,1007.96
2022-11-14T03:50:22.189Z,1007.96
2022-11-14T03:50:57.101Z,1007.95
2022-11-14T03:51:32.492Z,1007.97
2022-11-14T03:52:07.895Z,1007.97
2022-11-14T03:52:42.984Z,1007.92
2022-11-14T03:53:18.415Z,1007.95
2022-11-14T03:53:53.904Z,1007.94
2022-11-14T03:54:29.310Z,1007.94
2022-11-14T03:55:04.616Z,1007.93
2022-11-14T03:55:39.926Z,1007.93
2022-11-14T03:56:15.253Z,1007.91
2022-11-14T03:56:50.462Z,1007.91
2022-11-14T03:57:25.671Z,1007.90
2022-11-14T03:58:00.775Z,1007.86
2022-11-14T03:58:36.179Z,1007.86
2022-11-14T03:59:11.504Z,1007.89
2022-11-14T03:59:46.792Z,1007.90
2022-11-14T04:00:22.003Z,1007.89
2022-11-14T04:00:57.238Z,1007.88
2022-11-14T04:01:32.393Z,1007.90
2022-11-14T04:02:07.491Z,1007.92
2022-11-14T04:02:42.593Z,1007.87
2022-11-14T04:03:17.856Z,1007.89
2022-11-14T04:03:53.154Z,1007.89
2022-11-14T04:04:28.750Z,1007.92
2022-11-14T04:05:03.850Z,1007.88
2022-11-14T04:05:39.153Z,1007.89
2022-11-14T04:06:14.652Z,1007.89
2022-11-14T04:06:50.294Z,1007.86
2022-11-14T04:07:25.279Z,1007.87
2022-11-14T04:08:00.452Z,1007.86
2022-11-14T04:08:35.870Z,1007.86
2022-11-14T04:09:10.957Z,1007.82
2022-11-14T04:09:46.065Z,1007.84
2022-11-14T04:10:21.153Z,1007.83
2022-11-14T04:10:56.850Z,1007.82
2022-11-14T04:11:32.176Z,1007.82
2022-11-14T04:12:10.129Z,1007.79
2022-11-14T04:12:42.459Z,1007.80
2022-11-14T04:13:17.687Z,1007.76
2022-11-14T04:13:52.886Z,1007.77
2022-11-14T04:14:28.175Z,1007.79
2022-11-14T04:15:03.388Z,1007.77
2022-11-14T04:15:38.594Z,1007.75
2022-11-14T04:16:13.923Z,1007.74
2022-11-14T04:16:49.177Z,1007.72
2022-11-14T04:17:24.356Z,1007.75
2022-11-14T04:17:59.658Z,1007.72
2022-11-14T04:18:35.074Z,1007.71
2022-11-14T04:19:10.282Z,1007.72
2022-11-14T04:19:45.569Z,1007.72
2022-11-14T04:20:20.754Z,1007.72
2022-11-14T04:20:55.959Z,1007.73
2022-11-14T04:21:30.955Z,1007.74
2022-11-14T04:22:06.662Z,1007.74
2022-11-14T04:22:41.757Z,1007.75
2022-11-14T04:23:16.969Z,1007.79
2022-11-14T04:23:52.271Z,1007.80
2022-11-14T04:24:27.577Z,1007.78
2022-11-14T04:25:03.062Z,1007.78
2022-11-14T04:25:38.272Z,1007.75
2022-11-14T04:26:13.571Z,1007.77
2022-11-14T04:26:49.064Z,1007.79
2022-11-14T04:27:24.264Z,1007.73
2022-11-14T04:27:59.461Z,1007.72
2022-11-14T04:28:34.665Z,1007.71
2022-11-14T04:29:10.078Z,1007.74
2022-11-14T04:29:45.616Z,1007.71
2022-11-14T04:30:20.755Z,1007.71
2022-11-14T04:30:55.723Z,1007.71
2022-11-14T04:31:31.046Z,1007.67
2022-11-14T04:32:06.145Z,1007.68
2022-11-14T04:32:41.339Z,1007.66
2022-11-14T04:33:16.550Z,1007.66
2022-11-14T04:33:51.790Z,1007.64
2022-11-14T04:34:27.381Z,1007.65
2022-11-14T04:35:02.569Z,1007.66
2022-11-14T04:35:37.869Z,1007.65
2022-11-14T04:36:12.977Z,1007.65
2022-11-14T04:36:48.083Z,1007.68
2022-11-14T04:37:23.481Z,1007.69
2022-11-14T04:37:58.774Z,1007.67
2022-11-14T04:38:33.968Z,1007.67
2022-11-14T04:39:09.069Z,1007.67
2022-11-14T04:39:44.401Z,1007.64
2022-11-14T04:40:19.698Z,1007.62
2022-11-14T04:40:54.943Z,1007.62
2022-11-14T04:41:30.439Z,1007.60
2022-11-14T04:42:06.053Z,1007.58
2022-11-14T04:42:40.951Z,1007.59
2022-11-14T04:43:16.164Z,1007.53
2022-11-14T04:43:51.463Z,1007.59
2022-11-14T04:44:26.747Z,1007.56
2022-11-14T04:45:02.375Z,1007.57
2022-11-14T04:45:37.377Z,1007.50
2022-11-14T04:46:12.381Z,1007.57
2022-11-14T04:46:47.691Z,1007.59
2022-11-14T04:47:22.998Z,1007.57
2022-11-14T04:47:57.999Z,1007.51
2022-11-14T04:48:33.266Z,1007.54
2022-11-14T04:49:08.225Z,1007.50
2022-11-14T04:49:43.526Z,1007.54
2022-11-14T04:50:18.931Z,1007.47
2022-11-14T04:50:54.324Z,1007.47
2022-11-14T04:51:29.521Z,1007.42
2022-11-14T04:52:04.621Z,1007.44
2022-11-14T04:52:39.711Z,1007.42
2022-11-14T04:53:15.136Z,1007.40
2022-11-14T04:53:50.319Z,1007.40
2022-11-14T04:54:25.954Z,1007.42
2022-11-14T04:55:01.251Z,1007.43
2022-11-14T04:55:36.231Z,1007.45
2022-11-14T04:56:11.652Z,1007.43
2022-11-14T04:56:47.138Z,1007.42
2022-11-14T04:57:22.670Z,1007.45
2022-11-14T04:57:57.969Z,1007.38
2022-11-14T04:58:33.714Z,1007.41
2022-11-14T04:59:08.714Z,1007.46
2022-11-14T04:59:43.703Z,1007.43
2022-11-14T05:00:18.910Z,1007.49
2022-11-14T05:00:53.890Z,1007.49
2022-11-14T05:01:29.456Z,1007.49
2022-11-14T05:02:04.799Z,1007.46
2022-11-14T05:02:39.794Z,1007.44
2022-11-14T05:03:15.210Z,1007.43
2022-11-14T05:03:50.506Z,1007.46
2022-11-14T05:04:25.902Z,1007.43
2022-11-14T05:05:01.094Z,1007.37
2022-11-14T05:05:40.722Z,1007.37
2022-11-14T05:06:11.334Z,1007.36
2022-11-14T05:06:46.776Z,1007.37
2022-11-14T05:07:21.869Z,1007.37
2022-11-14T05:07:57.013Z,1007.37
2022-11-14T05:08:32.637Z,1007.38
2022-11-14T05:09:07.637Z,1007.39
2022-11-14T05:09:43.031Z,1007.37
2022-11-14T05:10:18.248Z,1007.33
2022-11-14T05:10:53.447Z,1007.34
2022-11-14T05:11:29.487Z,1007.27
2022-11-14T05:12:04.247Z,1007.29
2022-11-14T05:12:39.542Z,1007.32
2022-11-14T05:13:15.636Z,1007.27
2022-11-14T05:13:50.934Z,1007.27
2022-11-14T05:14:25.936Z,1007.26
2022-11-14T05:15:01.233Z,1007.26
2022-11-14T05:15:36.442Z,1007.28
2022-11-14T05:16:11.447Z,1007.28
2022-11-14T05:16:46.744Z,1007.27
2022-11-14T05:17:21.968Z,1007.29
2022-11-14T05:17:57.151Z,1007.27
2022-11-14T05:18:32.729Z,1007.28
2022-11-14T05:19:07.501Z,1007.20
2022-11-14T05:19:42.591Z,1007.24
2022-11-14T05:20:17.896Z,1007.24
2022-11-14T05:20:53.003Z,1007.20
2022-11-14T05:21:28.107Z,1007.24
2022-11-14T05:22:03.229Z,1007.20
2022-11-14T05:22:38.511Z,1007.18
2022-11-14T05:23:14.016Z,1007.17
2022-11-14T05:23:49.215Z,1007.15
2022-11-14T05:24:24.425Z,1007.19
2022-11-14T05:24:59.618Z,1007.15
2022-11-14T05:25:34.825Z,1007.18
2022-11-14T05:26:10.130Z,1007.21
2022-11-14T05:26:45.339Z,1007.21
2022-11-14T05:27:20.935Z,1007.21
2022-11-14T05:27:56.239Z,1007.21
2022-11-14T05:28:31.825Z,1007.24
2022-11-14T05:29:06.743Z,1007.25
2022-11-14T05:29:41.937Z,1007.25
2022-11-14T05:30:17.062Z,1007.21
2022-11-14T05:30:52.151Z,1007.21
2022-11-14T05:31:27.260Z,1007.18
2022-11-14T05:32:02.335Z,1007.21
2022-11-14T05:32:37.934Z,1007.17
2022-11-14T05:33:13.123Z,1007.18
2022-11-14T05:33:48.420Z,1007.17
2022-11-14T05:34:23.510Z,1007.11
2022-11-14T05:34:58.815Z,1007.13
2022-11-14T05:35:34.007Z,1007.14
2022-11-14T05:36:09.412Z,1007.14
2022-11-14T05:36:44.425Z,1007.10
2022-11-14T05:37:19.726Z,1007.12
2022-11-14T05:37:58.877Z,1007.11
2022-11-14T05:38:30.410Z,1007.14
2022-11-14T05:39:05.336Z,1007.16
2022-11-14T05:39:40.722Z,1007.15
2022-11-14T05:40:16.022Z,1007.13
2022-11-14T05:40:51.013Z,1007.11
2022-11-14T05:41:26.748Z,1007.12
2022-11-14T05:42:02.017Z,1007.13
2022-11-14T05:42:37.299Z,1007.12
2022-11-14T05:43:12.505Z,1007.09
2022-11-14T05:43:47.590Z,1007.10
2022-11-14T05:44:22.997Z,1007.14
2022-11-14T05:44:58.612Z,1007.11
2022-11-14T05:45:33.798Z,1007.15
2022-11-14T05:46:09.015Z,1007.10
2022-11-14T05:46:44.199Z,1007.13
2022-11-14T05:47:19.308Z,1007.07
2022-11-14T05:47:54.826Z,1007.09
2022-11-14T05:48:30.407Z,1007.08
2022-11-14T05:49:05.330Z,1007.09
2022-11-14T05:49:40.610Z,1007.09
2022-11-14T05:50:15.723Z,1007.06
2022-11-14T05:50:50.723Z,1007.07
2022-11-14T05:51:25.827Z,1007.06
2022-11-14T05:52:00.820Z,1007.04
2022-11-14T05:52:35.924Z,1007.05
2022-11-14T05:53:10.923Z,1007.04
2022-11-14T05:53:46.120Z,1007.02
2022-11-14T05:54:21.428Z,1007.02
2022-11-14T05:54:56.636Z,1007.02
2022-11-14T05:55:31.935Z,1007.02
2022-11-14T05:56:07.033Z,1007.03
2022-11-14T05:56:42.432Z,1007.04
2022-11-14T05:57:17.538Z,1007.03
2022-11-14T05:57:52.720Z,1007.06
2022-11-14T05:58:28.260Z,1007.11
2022-11-14T05:59:03.147Z,1007.12
2022-11-14T05:59:38.445Z,1007.12
2022-11-14T06:00:13.546Z,1007.15
2022-11-14T06:00:53.886Z,1007.16
2022-11-14T06:01:24.079Z,1007.23
2022-11-14T06:01:59.519Z,1007.19
2022-11-14T06:02:34.789Z,1007.21
2022-11-14T06:03:09.884Z,1007.20
2022-11-14T06:03:45.173Z,1007.21
2022-11-14T06:04:20.391Z,1007.17
2022-11-14T06:04:55.493Z,1007.16
2022-11-14T06:05:30.776Z,1007.11
2022-11-14T06:06:06.080Z,1007.14
2022-11-14T06:06:41.390Z,1007.12
2022-11-14T06:07:19.950Z,1007.10
2022-11-14T06:07:51.881Z,1007.12
2022-11-14T06:08:27.788Z,1007.12
2022-11-14T06:09:02.539Z,1007.11
2022-11-14T06:09:37.725Z,1007.09
2022-11-14T06:10:13.143Z,1007.13
2022-11-14T06:10:48.145Z,1007.08
2022-11-14T06:11:23.583Z,1007.08
2022-11-14T06:11:58.599Z,1007.10
2022-11-14T06:12:33.695Z,1007.08
2022-11-14T06:13:08.917Z,1007.05
2022-11-14T06:13:44.034Z,1007.09
2022-11-14T06:14:19.463Z,1007.06
2022-11-14T06:14:54.758Z,1007.10
2022-11-14T06:15:29.864Z,1007.09
2022-11-14T06:16:05.052Z,1007.12
2022-11-14T06:16:40.369Z,1007.10
2022-11-14T06:17:15.650Z,1007.13
2022-11-14T06:17:50.852Z,1007.12
2022-11-14T06:18:26.070Z,1007.10
2022-11-14T06:19:01.262Z,1007.10
2022-11-14T06:19:36.467Z,1007.11
2022-11-14T06:20:11.784Z,1007.15
2022-11-14T06:20:47.062Z,1007.19
2022-11-14T06:21:22.423Z,1007.17
2022-11-14T06:21:57.603Z,1007.26
2022-11-14T06:22:32.711Z,1007.28
2022-11-14T06:23:07.705Z,1007.29
2022-11-14T06:23:42.925Z,1007.29
2022-11-14T06:24:18.518Z,1007.32
2022-11-14T06:24:53.805Z,1007.34
2022-11-14T06:25:29.428Z,1007.27
2022-11-14T06:26:04.706Z,1007.28
2022-11-14T06:26:40.223Z,1007.23
2022-11-14T06:27:15.534Z,1007.26
2022-11-14T06:27:50.821Z,1007.26
2022-11-14T06:28:26.023Z,1007.30
2022-11-14T06:29:01.309Z,1007.31
2022-11-14T06:29:36.414Z,1007.28
2022-11-14T06:30:11.587Z,1007.26
2022-11-14T06:30:46.828Z,1007.30
2022-11-14T06:31:21.891Z,1007.29
2022-11-14T06:31:57.191Z,1007.24
2022-11-14T06:32:32.496Z,1007.25
2022-11-14T06:33:07.595Z,1007.26
2022-11-14T06:33:42.685Z,1007.28
2022-11-14T06:34:17.966Z,1007.24
2022-11-14T06:34:53.261Z,1007.33
2022-11-14T06:35:28.458Z,1007.35
2022-11-14T06:36:03.687Z,1007.36
2022-11-14T06:36:38.802Z,1007.36
2022-11-14T06:37:14.490Z,1007.36
2022-11-14T06:37:49.793Z,1007.40
2022-11-14T06:38:24.891Z,1007.37
2022-11-14T06:38:59.884Z,1007.39
2022-11-14T06:39:35.270Z,1007.40
2022-11-14T06:40:10.613Z,1007.41
2022-11-14T06:40:45.919Z,1007.36
2022-11-14T06:41:20.930Z,1007.40
2022-11-14T06:41:56.466Z,1007.34
2022-11-14T06:42:31.841Z,1007.35
2022-11-14T06:43:07.029Z,1007.35
2022-11-14T06:43:42.025Z,1007.31
2022-11-14T06:44:18.063Z,1007.34
2022-11-14T06:44:52.411Z,1007.33
2022-11-14T06:45:27.815Z,1007.30
2022-11-14T06:46:03.349Z,1007.31
2022-11-14T06:46:38.666Z,1007.30
2022-11-14T06:47:14.063Z,1007.28
2022-11-14T06:47:49.347Z,1007.27
2022-11-14T06:48:24.668Z,1007.26
2022-11-14T06:49:00.064Z,1007.28
2022-11-14T06:49:39.362Z,1007.25
2022-11-14T06:50:10.972Z,1007.26
2022-11-14T06:50:46.054Z,1007.22
2022-11-14T06:51:21.284Z,1007.19
2022-11-14T06:51:56.693Z,1007.20
2022-11-14T06:52:31.907Z,1007.16
2022-11-14T06:53:07.202Z,1007.14
2022-11-14T06:53:42.407Z,1007.15
2022-11-14T06:54:17.799Z,1007.13
2022-11-14T06:54:52.869Z,1007.11
2022-11-14T06:55:28.098Z,1007.12
2022-11-14T06:56:03.393Z,1007.13
2022-11-14T06:56:38.818Z,1007.13
2022-11-14T06:57:14.052Z,1007.11
2022-11-14T06:57:49.347Z,1007.12
2022-11-14T06:58:24.551Z,1007.12
2022-11-14T06:58:59.649Z,1007.13
2022-11-14T06:59:34.972Z,1007.09
2022-11-14T07:00:10.000Z,1007.09
2022-11-14T07:00:45.002Z,1007.05
2022-11-14T07:01:20.497Z,1007.09
2022-11-14T07:01:55.913Z,1007.08
2022-11-14T07:02:31.215Z,1007.04
2022-11-14T07:03:06.714Z,1007.05
2022-11-14T07:03:41.842Z,1007.01
2022-11-14T07:04:17.135Z,1007.03
2022-11-14T07:04:52.441Z,1007.04
2022-11-14T07:05:27.538Z,1007.06
2022-11-14T07:06:02.644Z,1007.05
2022-11-14T07:06:37.937Z,1007.04